Flight Track Log - Related Links

Times and Time Zones

All times are in EDT time to prevent confusion due to time zone crossing. See the DAL1020 flight status page for this flight to view local times or setup timezone preferences in your user account.

Time Position Orientation Groundspeed Altitude Reporting Facility
EDT Latitude Longitude Course Direction KTS MPH feet Rate Location/Type
Tue 04:48:11 PM 61.3333 -149.9500 101° East 280 322 9,800  Level Anchorage Center
Tue 04:50:12 PM 61.2833 -149.5833 106° East 370 426 13,700 2,155 Climbing Anchorage Center
Tue 04:51:00 PM 60.8956 -148.4725 104° East  Level FlightAware Approximate
Tue 04:51:12 PM 61.2500 -149.3667 108° East 380 437 16,300  Level Anchorage Center
Tue 04:52:00 PM 60.8628 -148.2113 101° East  Level FlightAware Approximate
Tue 04:53:00 PM 60.8364 -147.9472 101° East  Level FlightAware Approximate
Tue 04:53:00 PM 61.2464 -148.8754 91° East  Level Estimated
Tue 04:53:13 PM 61.1833 -148.9333 91° East 400 460 20,700  Level Anchorage Center
Tue 04:54:13 PM 61.1500 -148.7000 106° East 410 472 22,800 1,890 Climbing Anchorage Center
Tue 04:56:14 PM 61.0833 -148.2333 106° East 430 495 26,400 1,657 Climbing Anchorage Center
Tue 04:57:14 PM 61.0500 -148.0000 106° East 440 506 27,800 2,050 Climbing Anchorage Center
Tue 04:58:14 PM 61.0167 -147.7500 105° East 430 495 30,500 1,587 Climbing Anchorage Center
Tue 04:59:15 PM 60.9833 -147.5000 105° East 440 506 31,000 893 Climbing Anchorage Center
Tue 05:01:00 PM 60.9747 -147.0267 92° East  Level Estimated
Tue 05:02:16 PM 60.8667 -146.7500 92° East 470 541 34,100  Level Anchorage Center
Tue 05:03:16 PM 60.8167 -146.4833 111° Southeast 460 529 35,100 850 Climbing Anchorage Center
Tue 05:04:16 PM 60.7833 -146.2333 105° East 470 541 35,800 793 Climbing Anchorage Center
Tue 05:05:17 PM 60.7333 -145.9833 112° Southeast 470 541 36,700 595 Climbing Anchorage Center
Tue 05:06:17 PM 60.7000 -145.7167 104° East 470 541 37,000 150 Climbing Anchorage Center
Tue 05:07:17 PM 60.6500 -145.4667 112° Southeast 470 541 37,000  Level Anchorage Center
Tue 05:08:18 PM 60.6167 -145.2167 105° East 470 541 37,000  Level Anchorage Center
Tue 05:09:18 PM 60.5667 -144.9667 112° Southeast 460 529 37,000  Level Anchorage Center
Tue 05:10:18 PM 60.5167 -144.7167 112° Southeast 460 529 37,000  Level Anchorage Center
Tue 05:11:18 PM 60.4833 -144.4667 105° East 460 529 37,000  Level Anchorage Center
Tue 05:12:19 PM 60.4333 -144.2167 112° Southeast 460 529 37,000  Level Anchorage Center
Tue 05:13:19 PM 60.4000 -143.9833 106° East 460 529 37,000  Level Anchorage Center
Tue 05:14:19 PM 60.3500 -143.7333 112° Southeast 470 541 37,000  Level Anchorage Center
Tue 05:15:20 PM 60.3000 -143.4833 112° Southeast 470 541 37,000  Level Anchorage Center
Tue 05:16:20 PM 60.2500 -143.2333 112° Southeast 480 552 37,000  Level Anchorage Center
Tue 05:17:20 PM 60.2000 -142.9833 112° Southeast 470 541 37,000  Level Anchorage Center
Tue 05:18:21 PM 60.1500 -142.7333 112° Southeast 470 541 37,000  Level Anchorage Center
Tue 05:19:21 PM 60.1167 -142.5000 106° East 470 541 37,000  Level Anchorage Center
Tue 05:20:22 PM 60.0667 -142.2500 112° Southeast 480 552 37,000  Level Anchorage Center
Tue 05:21:22 PM 60.0167 -142.0000 112° Southeast 470 541 37,000  Level Anchorage Center
Tue 05:22:22 PM 59.9667 -141.7500 112° Southeast 470 541 37,000  Level Anchorage Center
Tue 05:23:23 PM 59.9167 -141.5167 113° Southeast 470 541 37,000  Level Anchorage Center
Tue 05:24:23 PM 59.8667 -141.2667 112° Southeast 470 541 37,000  Level Anchorage Center
Tue 05:25:23 PM 59.8167 -141.0333 113° Southeast 470 541 37,000  Level Anchorage Center
Tue 05:26:24 PM 59.7500 -140.7833 118° Southeast 470 541 37,000  Level Anchorage Center
Tue 05:27:24 PM 59.7000 -140.5500 113° Southeast 470 541 37,000  Level Anchorage Center
Tue 05:28:24 PM 59.6500 -140.3167 113° Southeast 480 552 37,000  Level Anchorage Center
Tue 05:29:25 PM 59.6000 -140.0667 111° Southeast 480 552 37,000  Level Anchorage Center
Tue 05:30:25 PM 59.5500 -139.8333 113° Southeast 480 552 37,000  Level Anchorage Center
Tue 05:31:25 PM 59.5000 -139.5833 111° Southeast 480 552 37,000  Level Anchorage Center
Tue 05:33:26 PM 59.4500 -139.1000 101° East 480 552 37,000  Level Anchorage Center
Tue 05:34:26 PM 59.4167 -138.8500 105° East 470 541 37,000  Level Anchorage Center
Tue 05:35:26 PM 59.3833 -138.6000 105° East 470 541 37,000  Level Anchorage Center
Tue 05:36:27 PM 59.3500 -138.3333 104° East 480 552 37,000  Level Anchorage Center
Tue 05:38:27 PM 59.2833 -137.8333 104° East 470 541 37,000  Level Anchorage Center
Tue 05:39:28 PM 59.2500 -137.5833 105° East 480 552 37,000  Level Anchorage Center
Tue 05:40:28 PM 59.2167 -137.2833 102° East 470 541 37,000  Level Anchorage Center
Tue 05:41:28 PM 59.1833 -137.0167 104° East 480 552 37,000  Level Anchorage Center
Tue 05:42:29 PM 59.1500 -136.7667 104° East 480 552 37,000  Level Anchorage Center
Tue 05:43:29 PM 59.1167 -136.5167 104° East 490 564 37,000  Level Anchorage Center
Tue 05:44:29 PM 59.0833 -136.2667 104° East 470 541 37,000  Level Anchorage Center
Tue 05:45:30 PM 59.0500 -136.0167 104° East 480 552 37,000  Level Anchorage Center
Tue 05:46:30 PM 59.0000 -135.7667 111° Southeast 470 541 37,000  Level Anchorage Center
Tue 05:47:31 PM 58.9667 -135.5167 104° East 480 552 37,000  Level Anchorage Center
Tue 05:48:31 PM 58.9333 -135.2833 105° East 480 552 37,000  Level Anchorage Center
Tue 05:49:31 PM 58.9000 -135.0333 104° East 480 552 37,000  Level Anchorage Center
Tue 05:50:32 PM 58.8667 -134.7833 104° East 480 552 37,000  Level Anchorage Center
Tue 05:51:32 PM 58.8167 -134.5333 111° Southeast 480 552 37,000  Level Anchorage Center
Tue 05:52:32 PM 58.7833 -134.2833 104° East 480 552 37,000  Level Anchorage Center
Tue 05:53:32 PM 58.7500 -134.0333 104° East 480 552 37,000  Level Anchorage Center
Tue 05:55:00 PM 58.7089 -133.6780 102° East  Level FlightAware Approximate
Tue 06:02:00 PM 58.4991 -131.9940 103° East  Level FlightAware Approximate
Tue 06:03:00 PM 58.4674 -131.7551 104° East  Level FlightAware Approximate
Tue 06:04:00 PM 58.4352 -131.5167 104° East  Level FlightAware Approximate
Tue 06:05:00 PM 58.4026 -131.2786 105° East  Level FlightAware Approximate
Tue 06:06:00 PM 58.3695 -131.0411 105° East  Level FlightAware Approximate
Tue 06:07:00 PM 58.3360 -130.8039 105° East  Level FlightAware Approximate
Tue 06:08:00 PM 58.3020 -130.5673 105° East  Level FlightAware Approximate
Tue 06:09:00 PM 58.2676 -130.3311 105° East  Level FlightAware Approximate
Tue 06:10:00 PM 58.2328 -130.0953 106° East  Level FlightAware Approximate
Tue 06:11:00 PM 58.1976 -129.8600 106° East  Level FlightAware Approximate
Tue 06:12:00 PM 58.1619 -129.6252 106° East  Level FlightAware Approximate
Tue 06:13:00 PM 58.1258 -129.3908 106° East  Level FlightAware Approximate
Tue 06:14:00 PM 58.0892 -129.1570 106° East  Level FlightAware Approximate
Tue 06:15:00 PM 58.0522 -128.9236 107° East  Level FlightAware Approximate
Tue 06:16:00 PM 58.0148 -128.6907 107° East  Level FlightAware Approximate
Tue 06:17:00 PM 57.9770 -128.4583 107° East  Level FlightAware Approximate
Tue 06:18:00 PM 57.9388 -128.2263 107° East  Level FlightAware Approximate
Tue 06:19:00 PM 57.9001 -127.9949 107° East  Level FlightAware Approximate
Tue 06:20:00 PM 57.8610 -127.7640 108° East  Level FlightAware Approximate
Tue 06:21:00 PM 57.8215 -127.5336 108° East  Level FlightAware Approximate
Tue 06:22:00 PM 57.7816 -127.3036 108° East  Level FlightAware Approximate
Tue 06:23:00 PM 57.7412 -127.0742 108° East  Level FlightAware Approximate
Tue 06:24:00 PM 57.7005 -126.8454 108° East  Level FlightAware Approximate
Tue 06:25:00 PM 57.6593 -126.6170 109° East  Level FlightAware Approximate
Tue 06:26:00 PM 57.6177 -126.3891 109° East  Level FlightAware Approximate
Tue 06:27:00 PM 57.5750 -126.1614 109° East  Level FlightAware Approximate
Tue 06:28:00 PM 57.5320 -125.9350 109° East  Level FlightAware Approximate
Tue 06:29:00 PM 57.4885 -125.7092 110° East  Level FlightAware Approximate
Tue 06:30:00 PM 57.4447 -125.4839 110° East  Level FlightAware Approximate
Tue 06:30:01 PM 57.0000 -125.6167 111° Southeast 530 610 37,000  Level Edmonton Center
Tue 06:31:00 PM 57.4005 -125.2591 110° East  Level FlightAware Approximate
Tue 06:31:01 PM 56.9500 -125.4000 113° Southeast 480 552 37,000  Level Edmonton Center
Tue 06:32:00 PM 57.3558 -125.0349 110° East  Level FlightAware Approximate
Tue 06:32:01 PM 56.9000 -125.1667 111° Southeast 470 541 37,000  Level Edmonton Center
Tue 06:33:00 PM 57.3108 -124.8112 110° East  Level FlightAware Approximate
Tue 06:33:01 PM 56.8500 -124.9500 113° Southeast 470 541 37,000  Level Edmonton Center
Tue 06:34:00 PM 57.2654 -124.5881 111° Southeast  Level FlightAware Approximate
Tue 06:34:01 PM 56.7833 -124.7167 117° Southeast 470 541 37,000  Level Edmonton Center
Tue 06:35:00 PM 57.2196 -124.3655 111° Southeast  Level FlightAware Approximate
Tue 06:35:01 PM 56.7333 -124.5000 113° Southeast 470 541 37,000  Level Edmonton Center
Tue 06:36:01 PM 56.6833 -124.2833 113° Southeast 470 541 37,000  Level Edmonton Center
Tue 06:37:01 PM 56.6167 -124.0667 119° Southeast 480 552 37,000  Level Edmonton Center
Tue 06:38:01 PM 56.5833 -123.8167 104° East 480 552 37,000  Level Edmonton Center
Tue 06:39:01 PM 56.5333 -123.6000 113° Southeast 480 552 37,000  Level Edmonton Center
Tue 06:40:01 PM 56.4833 -123.3833 113° Southeast 480 552 37,000  Level Edmonton Center
Tue 06:41:01 PM 56.4500 -123.1500 104° East 480 552 37,000 600 Level Edmonton Center
Tue 06:42:01 PM 56.4000 -122.9333 113° Southeast 480 552 38,200 950 Climbing Edmonton Center
Tue 06:43:01 PM 56.3500 -122.6833 110° East 470 541 38,900 400 Climbing Edmonton Center
Tue 06:44:01 PM 56.3167 -122.4833 107° East 470 541 39,000 50 Climbing Edmonton Center
Tue 06:45:01 PM 56.2500 -122.2667 119° Southeast 460 529 39,000  Level Edmonton Center
Tue 06:46:01 PM 56.2167 -122.0500 105° East 460 529 39,000  Level Edmonton Center
Tue 06:47:01 PM 56.1500 -121.8500 121° Southeast 470 541 39,000  Level Edmonton Center
Tue 06:48:01 PM 56.1167 -121.6167 104° East 470 541 39,000  Level Edmonton Center
Tue 06:49:01 PM 56.0667 -121.4000 112° Southeast 470 541 39,000  Level Edmonton Center
Tue 06:50:01 PM 56.0167 -121.1500 110° East 470 541 39,000  Level Edmonton Center
Tue 06:51:01 PM 55.9667 -120.9500 114° Southeast 470 541 39,000  Level Edmonton Center
Tue 06:52:01 PM 55.9167 -120.7333 112° Southeast 470 541 39,000  Level Edmonton Center
Tue 06:53:01 PM 55.8667 -120.5333 114° Southeast 470 541 39,000  Level Edmonton Center
Tue 06:54:01 PM 55.8167 -120.3000 111° Southeast 470 541 39,000  Level Edmonton Center
Tue 06:55:01 PM 55.7500 -120.0833 119° Southeast 470 541 39,000  Level Edmonton Center
Tue 06:56:01 PM 55.7167 -119.8833 106° East 470 541 39,000  Level Edmonton Center
Tue 06:57:01 PM 55.6500 -119.6500 117° Southeast 470 541 39,000  Level Edmonton Center
Tue 06:58:01 PM 55.6167 -119.4500 106° East 470 541 39,000  Level Edmonton Center
Tue 06:59:01 PM 55.5500 -119.2167 117° Southeast 470 541 39,000  Level Edmonton Center
Tue 07:00:01 PM 55.4833 -119.0167 120° Southeast 470 541 39,000  Level Edmonton Center
Tue 07:01:01 PM 55.4500 -118.7833 104° East 470 541 39,000  Level Edmonton Center
Tue 07:02:01 PM 55.3833 -118.5833 120° Southeast 470 541 39,000  Level Edmonton Center
Tue 07:03:01 PM 55.3167 -118.3667 118° Southeast 470 541 39,000  Level Edmonton Center
Tue 07:04:01 PM 55.2833 -118.1500 105° East 470 541 39,000  Level Edmonton Center
Tue 07:05:01 PM 55.2333 -117.9500 114° Southeast 470 541 39,000  Level Edmonton Center
Tue 07:06:01 PM 55.1667 -117.7500 120° Southeast 470 541 39,000  Level Edmonton Center
Tue 07:07:01 PM 55.1000 -117.5167 116° Southeast 470 541 39,000  Level Edmonton Center
Tue 07:08:01 PM 55.0667 -117.3167 106° East 470 541 39,000  Level Edmonton Center
Tue 07:09:01 PM 55.0000 -117.1167 120° Southeast 470 541 39,000  Level Edmonton Center
Tue 07:10:01 PM 54.9333 -116.8833 116° Southeast 480 552 39,000  Level Edmonton Center
Tue 07:11:01 PM 54.8833 -116.7000 115° Southeast 480 552 39,000  Level Edmonton Center
Tue 07:12:01 PM 54.8167 -116.4667 116° Southeast 480 552 39,000  Level Edmonton Center
Tue 07:13:01 PM 54.7500 -116.2667 120° Southeast 470 541 39,000  Level Edmonton Center
Tue 07:14:01 PM 54.7000 -116.0833 115° Southeast 470 541 39,000  Level Edmonton Center
Tue 07:15:01 PM 54.6500 -115.8667 112° Southeast 460 529 39,000  Level Edmonton Center
Tue 07:16:01 PM 54.5833 -115.6667 120° Southeast 460 529 39,000  Level Edmonton Center
Tue 07:17:01 PM 54.5167 -115.4667 120° Southeast 470 541 39,000  Level Edmonton Center
Tue 07:18:01 PM 54.4500 -115.2500 118° Southeast 480 552 39,000  Level Edmonton Center
Tue 07:19:01 PM 54.4000 -115.0500 113° Southeast 480 552 39,000  Level Edmonton Center
Tue 07:20:01 PM 54.3333 -114.8333 118° Southeast 480 552 39,000  Level Edmonton Center
Tue 07:21:01 PM 54.2833 -114.6500 115° Southeast 470 541 39,000  Level Edmonton Center
Tue 07:22:01 PM 54.2167 -114.4167 116° Southeast 470 541 39,000  Level Edmonton Center
Tue 07:23:01 PM 54.1667 -114.2333 115° Southeast 470 541 39,000  Level Edmonton Center
Tue 07:24:01 PM 54.1000 -114.0500 122° Southeast 470 541 39,000  Level Edmonton Center
Tue 07:25:01 PM 54.0333 -113.8333 118° Southeast 470 541 39,000  Level Edmonton Center
Tue 07:26:01 PM 53.9667 -113.6500 122° Southeast 470 541 39,000  Level Edmonton Center
Tue 07:27:01 PM 53.9167 -113.4500 113° Southeast 470 541 39,000  Level Edmonton Center
Tue 07:28:01 PM 53.8500 -113.2333 117° Southeast 470 541 39,000  Level Edmonton Center
Tue 07:29:01 PM 53.7833 -113.0500 122° Southeast 470 541 39,000  Level Edmonton Center
Tue 07:30:01 PM 53.7000 -112.8333 123° Southeast 480 552 39,000  Level Edmonton Center
Tue 07:31:01 PM 53.6500 -112.6500 115° Southeast 480 552 39,000  Level Edmonton Center
Tue 07:32:01 PM 53.5833 -112.4667 121° Southeast 480 552 39,000  Level Edmonton Center
Tue 07:33:01 PM 53.4833 -112.2833 132° Southeast 470 541 39,000  Level Edmonton Center
Tue 07:34:01 PM 53.4000 -112.1167 130° Southeast 470 541 39,000  Level Edmonton Center
Tue 07:35:01 PM 53.3000 -111.9667 138° Southeast 470 541 39,000  Level Edmonton Center
Tue 07:36:01 PM 53.2333 -111.8167 127° Southeast 480 552 39,000  Level Edmonton Center
Tue 07:37:01 PM 53.1167 -111.6167 134° Southeast 480 552 39,000  Level Edmonton Center
Tue 07:38:01 PM 53.0500 -111.4667 126° Southeast 470 541 39,000  Level Edmonton Center
Tue 07:40:27 PM 52.8667 -111.0667 127° Southeast 490 564 39,000  Level Winnipeg Center
Tue 07:41:01 PM 52.8167 -110.9333 122° Southeast 480 552 39,000  Level Edmonton Center
Tue 07:42:01 PM 52.7500 -110.7167 117° Southeast 480 552 39,000  Level Edmonton Center
Tue 07:43:01 PM 52.6833 -110.5167 119° Southeast 480 552 39,000  Level Edmonton Center
Tue 07:44:01 PM 52.6333 -110.3167 112° Southeast 480 552 39,000  Level Edmonton Center
Tue 07:45:27 PM 52.5333 -110.0667 123° Southeast 490 564 39,000  Level Winnipeg Center
Tue 07:46:27 PM 52.4667 -109.8833 121° Southeast 490 564 39,000  Level Winnipeg Center
Tue 07:47:27 PM 52.4167 -109.6833 112° Southeast 490 564 39,000  Level Winnipeg Center
Tue 07:48:01 PM 52.3667 -109.5333 119° Southeast 480 552 39,000  Level Edmonton Center
Tue 07:49:01 PM 52.3000 -109.3667 123° Southeast 480 552 39,000  Level Edmonton Center
Tue 07:50:01 PM 52.2333 -109.1667 118° Southeast 480 552 39,000  Level Edmonton Center
Tue 07:51:27 PM 52.1500 -108.9333 120° Southeast 480 552 39,000  Level Winnipeg Center
Tue 07:52:27 PM 52.0833 -108.7167 117° Southeast 480 552 39,000  Level Winnipeg Center
Tue 07:53:27 PM 52.0167 -108.5333 121° Southeast 480 552 39,000  Level Winnipeg Center
Tue 07:55:01 PM 51.9000 -108.2000 119° Southeast 480 552 39,000  Level Edmonton Center
Tue 07:56:01 PM 51.8333 -108.0333 123° Southeast 480 552 39,000  Level Edmonton Center
Tue 07:57:27 PM 51.7333 -107.7833 123° Southeast 490 564 39,000  Level Winnipeg Center
Tue 07:58:27 PM 51.6667 -107.6000 120° Southeast 490 564 39,000  Level Winnipeg Center
Tue 07:59:27 PM 51.6000 -107.4000 118° Southeast 490 564 39,000  Level Winnipeg Center
Tue 08:00:27 PM 51.5333 -107.2167 120° Southeast 490 564 39,000  Level Winnipeg Center
Tue 08:01:27 PM 51.4667 -107.0167 118° Southeast 490 564 39,000  Level Winnipeg Center
Tue 08:02:27 PM 51.4000 -106.8333 120° Southeast 500 575 39,000  Level Winnipeg Center
Tue 08:03:27 PM 51.3167 -106.6333 124° Southeast 500 575 39,000  Level Winnipeg Center
Tue 08:04:27 PM 51.2500 -106.4500 120° Southeast 500 575 39,000  Level Winnipeg Center
Tue 08:05:27 PM 51.1833 -106.2500 118° Southeast 510 587 39,000  Level Winnipeg Center
Tue 08:06:27 PM 51.1167 -106.0667 120° Southeast 510 587 39,000  Level Winnipeg Center
Tue 08:07:27 PM 51.0333 -105.8667 123° Southeast 510 587 39,000  Level Winnipeg Center
Tue 08:08:27 PM 50.9500 -105.7000 128° Southeast 510 587 39,000  Level Winnipeg Center
Tue 08:09:27 PM 50.8667 -105.4833 121° Southeast 510 587 39,000  Level Winnipeg Center
Tue 08:10:27 PM 50.8000 -105.3000 120° Southeast 510 587 39,000  Level Winnipeg Center
Tue 08:11:27 PM 50.7333 -105.1167 120° Southeast 510 587 39,000  Level Winnipeg Center
Tue 08:12:27 PM 50.6667 -104.9167 118° Southeast 510 587 39,000  Level Winnipeg Center
Tue 08:13:27 PM 50.5667 -104.7500 133° Southeast 500 575 39,000  Level Winnipeg Center
Tue 08:14:27 PM 50.5000 -104.5500 118° Southeast 510 587 39,000  Level Winnipeg Center
Tue 08:15:27 PM 50.4167 -104.3500 123° Southeast 510 587 39,000  Level Winnipeg Center
Tue 08:16:27 PM 50.3333 -104.1833 128° Southeast 500 575 39,000  Level Winnipeg Center
Tue 08:17:27 PM 50.2667 -104.0167 122° Southeast 500 575 39,000  Level Winnipeg Center
Tue 08:18:27 PM 50.2000 -103.8167 117° Southeast 500 575 39,000  Level Winnipeg Center
Tue 08:19:27 PM 50.1000 -103.6500 133° Southeast 500 575 39,000  Level Winnipeg Center
Tue 08:20:27 PM 50.0333 -103.4500 117° Southeast 500 575 39,000  Level Winnipeg Center
Tue 08:21:27 PM 49.9500 -103.2833 128° Southeast 510 587 39,000  Level Winnipeg Center
Tue 08:22:27 PM 49.8667 -103.1000 125° Southeast 510 587 39,000  Level Winnipeg Center
Tue 08:23:27 PM 49.7833 -102.9333 128° Southeast 510 587 39,000  Level Winnipeg Center
Tue 08:24:27 PM 49.7000 -102.7333 123° Southeast 510 587 39,000  Level Winnipeg Center
Tue 08:25:27 PM 49.6333 -102.5500 119° Southeast 510 587 39,000  Level Winnipeg Center
Tue 08:26:27 PM 49.5500 -102.3833 128° Southeast 510 587 39,000  Level Winnipeg Center
Tue 08:27:27 PM 49.4667 -102.2000 125° Southeast 510 587 39,000  Level Winnipeg Center
Tue 08:28:27 PM 49.3833 -102.0333 127° Southeast 510 587 39,000  Level Winnipeg Center
Tue 08:29:27 PM 49.2833 -101.8333 127° Southeast 510 587 39,000  Level Winnipeg Center
Tue 08:30:27 PM 49.2167 -101.6833 124° Southeast 510 587 39,000  Level Winnipeg Center
Tue 08:31:27 PM 49.1333 -101.5000 125° Southeast 510 587 39,000  Level Winnipeg Center
Tue 08:32:27 PM 49.0667 -101.3333 121° Southeast 500 575 39,000  Level Winnipeg Center
Tue 08:33:27 PM 48.9667 -101.1500 130° Southeast 500 575 39,000  Level Winnipeg Center
Tue 08:34:27 PM 48.8833 -100.9833 127° Southeast 500 575 39,000  Level Winnipeg Center
Tue 08:35:27 PM 48.8000 -100.8000 125° Southeast 500 575 39,000  Level Winnipeg Center
Tue 08:35:58 PM 48.7894 -100.7406 105° East 504 580 39,000  Level Minneapolis Center
Tue 08:37:00 PM 48.7058 -100.5683 126° Southeast 506 582 39,000  Level Minneapolis Center
Tue 08:38:02 PM 48.6042 -100.3647 127° Southeast 507 583 39,000  Level Minneapolis Center
Tue 08:39:04 PM 48.5192 -100.1928 127° Southeast 510 587 39,000  Level Minneapolis Center
Tue 08:40:06 PM 48.4347 -100.0214 127° Southeast 511 588 39,000  Level Minneapolis Center
Tue 08:41:08 PM 48.3486 -99.8511 127° Southeast 512 589 39,000  Level Minneapolis Center
Tue 08:42:10 PM 48.2619 -99.6808 127° Southeast 514 592 39,000  Level Minneapolis Center
Tue 08:43:12 PM 48.1767 -99.5089 127° Southeast 516 594 39,000  Level Minneapolis Center
Tue 08:44:14 PM 48.0742 -99.3003 126° Southeast 520 598 39,000  Level Minneapolis Center
Tue 08:45:16 PM 47.9858 -99.1294 128° Southeast 519 597 39,000  Level Minneapolis Center
Tue 08:46:18 PM 47.8975 -98.9611 128° Southeast 519 597 39,000  Level Minneapolis Center
Tue 08:47:20 PM 47.8094 -98.7917 128° Southeast 519 597 39,000  Level Minneapolis Center
Tue 08:48:22 PM 47.7206 -98.6236 128° Southeast 519 597 39,000  Level Minneapolis Center
Tue 08:49:24 PM 47.6161 -98.4269 128° Southeast 514 592 39,000 -432 Level Minneapolis Center
Tue 08:50:27 PM 47.5297 -98.2656 128° Southeast 510 587 38,100 -1,104 Descending Minneapolis Center
Tue 08:51:29 PM 47.4419 -98.1019 128° Southeast 513 590 36,700 -871 Descending Minneapolis Center
Tue 08:52:31 PM 47.3536 -97.9403 129° Southeast 520 598 36,300 -726 Descending Minneapolis Center
Tue 08:53:33 PM 47.2489 -97.7450 128° Southeast 516 594 35,200 -629 Descending Minneapolis Center
Tue 08:54:35 PM 47.1583 -97.5797 129° Southeast 521 600 35,000 -97 Descending Minneapolis Center
Tue 08:55:37 PM 47.0686 -97.4167 129° Southeast 518 596 35,000  Level Minneapolis Center
Tue 08:56:39 PM 46.9792 -97.2531 129° Southeast 517 595 35,000  Level Minneapolis Center
Tue 08:57:41 PM 46.8878 -97.0922 130° Southeast 518 596 35,000  Level Minneapolis Center
Tue 08:58:43 PM 46.7789 -96.8953 129° Southeast 520 598 35,000  Level Minneapolis Center
Tue 08:59:45 PM 46.7092 -96.7092 119° Southeast 525 604 35,000  Level Minneapolis Center
Tue 09:00:47 PM 46.6506 -96.5094 113° Southeast 534 615 35,000  Level Minneapolis Center
Tue 09:01:49 PM 46.5925 -96.3131 113° Southeast 533 613 35,000  Level Minneapolis Center
Tue 09:02:51 PM 46.5314 -96.1158 114° Southeast 537 618 35,000  Level Minneapolis Center
Tue 09:03:53 PM 46.4703 -95.9172 114° Southeast 539 620 35,000  Level Minneapolis Center
Tue 09:04:55 PM 46.4014 -95.6978 114° Southeast 538 619 35,000 -336 Level Minneapolis Center
Tue 09:05:58 PM 46.3403 -95.5019 114° Southeast 535 616 34,300 -912 Descending Minneapolis Center
Tue 09:07:00 PM 46.2753 -95.2944 114° Southeast 514 592 33,100 -1,113 Descending Minneapolis Center
Tue 09:08:02 PM 46.2181 -95.1139 115° Southeast 501 577 32,000 -976 Descending Minneapolis Center
Tue 09:09:03 PM 46.1636 -94.9450 115° Southeast 489 563 31,100 -1,268 Descending Minneapolis Center
Tue 09:10:05 PM 46.0978 -94.7397 115° Southeast 474 545 29,400 -1,452 Descending Minneapolis Center
Tue 09:11:07 PM 46.0425 -94.5725 115° Southeast 466 536 28,100 -677 Descending Minneapolis Center
Tue 09:12:09 PM 45.9889 -94.4067 115° Southeast 461 531 28,000 -387 Descending Minneapolis Center
Tue 09:13:11 PM 45.9350 -94.2422 115° Southeast 456 525 27,300 -1,113 Descending Minneapolis Center
Tue 09:14:13 PM 45.8808 -94.0792 115° Southeast 455 524 25,700 -1,597 Descending Minneapolis Center
Tue 09:15:15 PM 45.8236 -93.9178 117° Southeast 454 522 24,000 -1,694 Descending Minneapolis Center
Tue 09:16:17 PM 45.7108 -93.7633 136° Southeast 469 540 22,200 -2,274 Descending Minneapolis Center
Tue 09:17:19 PM 45.6058 -93.6561 144° Southeast 465 535 19,300 -2,758 Descending Minneapolis Center
Tue 09:18:21 PM 45.4997 -93.5569 147° Southeast 454 522 16,500 -2,710 Descending Minneapolis Center
Tue 09:19:23 PM 45.3889 -93.5006 160° South 423 487 13,700 -2,565 Descending Minneapolis Center
Tue 09:20:25 PM 45.2803 -93.4447 160° South 416 479 11,200 -1,306 Descending Minneapolis Center
Tue 09:21:27 PM 45.1728 -93.3875 159° South 414 476 11,000 -97 Descending Minneapolis Center
Tue 09:22:29 PM 45.0658 -93.3292 159° South 413 475 11,000 -48 Level Minneapolis Center
Tue 09:23:31 PM 44.9628 -93.2186 143° Southeast 389 448 10,900 -1,016 Descending Minneapolis Center
Tue 09:24:33 PM 44.9106 -93.0972 121° Southeast 349 402 8,900 -1,659 Descending Minneapolis Center
Tue 09:25:34 PM 44.8667 -92.9925 121° Southeast 304 350 7,500 -1,463 Descending Minneapolis Center
Tue 09:26:36 PM 44.8456 -92.8925 107° East 265 305 5,900 -1,548 Descending Minneapolis Center
Tue 09:27:38 PM 44.8183 -92.8039 113° Southeast 259 298 4,300 -919 Descending Minneapolis Center
Tue 09:28:40 PM 44.7619 -92.8272 196° South 225 259 4,000 -145 Descending Minneapolis Center
Tue 09:29:42 PM 44.7594 -92.8986 267° West 185 213 4,000  Level Minneapolis Center
Tue 09:30:44 PM 44.7847 -92.9731 296° West 180 207 4,000 -244 Level Minneapolis Center
Tue 09:31:45 PM 44.8058 -93.0211 302° West 183 211 3,500 -683 Descending Minneapolis Center
Tue 09:32:47 PM 44.8331 -93.0836 302° West 154 177 2,600 -774 Descending Minneapolis Center
Tue 09:33:49 PM 44.8519 -93.1267 302° West 132 152 1,900 -629 Descending Minneapolis Center
Tue 09:34:51 PM 44.8683 -93.1636 302° West 114 131 1,300 -581 Descending Minneapolis Center
Tue 09:36:00 PM 44.8667 -93.2167 270° West  Level FlightAware Approximate
Tue 09:43:00 PM 44.8820 -93.2218 270° West  Level Estimated
Tue 09:44:00 PM 44.8820 -93.2218 270° West  Level Estimated

Login

Don't have an account? Register now (free) for customized features, flight alerts, and more!